<?xml version="1.0" encoding="UTF-8"?>
<gpx xmlns="http://www.topografix.com/GPX/1/1" xmlns:xsi="http://www.w3.org/2001/XMLSchema-instance" version="1.1" xsi:schemaLocation="http://www.topografix.com/GPX/1/1 http://www.topografix.com/GPX/1/1/gpx.xsd">
  <metadata>
    <name>Ullswater Epicman Triathlon 2026 - Aquabike Sprint</name>
  </metadata>
  <trk>
    <name>Ullswater Epicman Triathlon 2026 - Aquabike Sprint</name>
    <trkseg>
      <trkpt lat="54.604923" lon="-2.822937">
        <ele>155.554874</ele>
        <time>2026-06-28T07:45:00.000Z</time>
      </trkpt>
      <trkpt lat="54.605069" lon="-2.822797">
        <ele>155.554872</ele>
        <time>2026-06-28T07:45:02.000Z</time>
      </trkpt>
      <trkpt lat="54.605524" lon="-2.822039">
        <ele>155.554865</ele>
        <time>2026-06-28T07:45:09.000Z</time>
      </trkpt>
      <trkpt lat="54.605855" lon="-2.821223">
        <ele>155.904001</ele>
        <time>2026-06-28T07:45:15.000Z</time>
      </trkpt>
      <trkpt lat="54.606009" lon="-2.820971">
        <ele>156.059552</ele>
        <time>2026-06-28T07:45:17.000Z</time>
      </trkpt>
      <trkpt lat="54.606531" lon="-2.820325">
        <ele>156.525566</ele>
        <time>2026-06-28T07:45:24.000Z</time>
      </trkpt>
      <trkpt lat="54.606957" lon="-2.819635">
        <ele>156.854092</ele>
        <time>2026-06-28T07:45:30.000Z</time>
      </trkpt>
      <trkpt lat="54.607872" lon="-2.818567">
        <ele>156.756248</ele>
        <time>2026-06-28T07:45:42.000Z</time>
      </trkpt>
      <trkpt lat="54.608136" lon="-2.818265">
        <ele>156.728943</ele>
        <time>2026-06-28T07:45:46.000Z</time>
      </trkpt>
      <trkpt lat="54.608429" lon="-2.81753">
        <ele>156.798734</ele>
        <time>2026-06-28T07:45:52.000Z</time>
      </trkpt>
      <trkpt lat="54.608489" lon="-2.817459">
        <ele>156.8272</ele>
        <time>2026-06-28T07:45:53.000Z</time>
      </trkpt>
      <trkpt lat="54.609407" lon="-2.816861">
        <ele>157.187038</ele>
        <time>2026-06-28T07:46:04.000Z</time>
      </trkpt>
      <trkpt lat="54.609907" lon="-2.816337">
        <ele>157.414939</ele>
        <time>2026-06-28T07:46:11.000Z</time>
      </trkpt>
      <trkpt lat="54.610468" lon="-2.815666">
        <ele>157.740128</ele>
        <time>2026-06-28T07:46:19.000Z</time>
      </trkpt>
      <trkpt lat="54.610648" lon="-2.815501">
        <ele>157.841671</ele>
        <time>2026-06-28T07:46:21.000Z</time>
      </trkpt>
      <trkpt lat="54.611366" lon="-2.815069">
        <ele>158.20169</ele>
        <time>2026-06-28T07:46:29.000Z</time>
      </trkpt>
      <trkpt lat="54.611476" lon="-2.814959">
        <ele>158.350882</ele>
        <time>2026-06-28T07:46:30.000Z</time>
      </trkpt>
      <trkpt lat="54.611839" lon="-2.814587">
        <ele>159.100555</ele>
        <time>2026-06-28T07:46:35.000Z</time>
      </trkpt>
      <trkpt lat="54.612097" lon="-2.814495">
        <ele>159.593618</ele>
        <time>2026-06-28T07:46:38.000Z</time>
      </trkpt>
      <trkpt lat="54.612261" lon="-2.814389">
        <ele>159.895532</ele>
        <time>2026-06-28T07:46:40.000Z</time>
      </trkpt>
      <trkpt lat="54.612794" lon="-2.81379">
        <ele>161.013663</ele>
        <time>2026-06-28T07:46:47.000Z</time>
      </trkpt>
      <trkpt lat="54.613031" lon="-2.813707">
        <ele>161.448391</ele>
        <time>2026-06-28T07:46:50.000Z</time>
      </trkpt>
      <trkpt lat="54.613785" lon="-2.813636">
        <ele>164.536726</ele>
        <time>2026-06-28T07:46:58.000Z</time>
      </trkpt>
      <trkpt lat="54.613856" lon="-2.813681">
        <ele>164.905083</ele>
        <time>2026-06-28T07:46:59.000Z</time>
      </trkpt>
      <trkpt lat="54.614048" lon="-2.813462">
        <ele>165.796994</ele>
        <time>2026-06-28T07:47:02.000Z</time>
      </trkpt>
      <trkpt lat="54.6144" lon="-2.813215">
        <ele>167.387889</ele>
        <time>2026-06-28T07:47:06.000Z</time>
      </trkpt>
      <trkpt lat="54.614569" lon="-2.813073">
        <ele>168.184128</ele>
        <time>2026-06-28T07:47:08.000Z</time>
      </trkpt>
      <trkpt lat="54.615122" lon="-2.81244">
        <ele>170.756234</ele>
        <time>2026-06-28T07:47:15.000Z</time>
      </trkpt>
      <trkpt lat="54.616209" lon="-2.811088">
        <ele>175.898832</ele>
        <time>2026-06-28T07:47:30.000Z</time>
      </trkpt>
      <trkpt lat="54.61625" lon="-2.81105">
        <ele>175.937441</ele>
        <time>2026-06-28T07:47:31.000Z</time>
      </trkpt>
      <trkpt lat="54.616835" lon="-2.81046">
        <ele>176.59121</ele>
        <time>2026-06-28T07:47:39.000Z</time>
      </trkpt>
      <trkpt lat="54.617092" lon="-2.810087">
        <ele>176.92748</ele>
        <time>2026-06-28T07:47:43.000Z</time>
      </trkpt>
      <trkpt lat="54.617445" lon="-2.809375">
        <ele>177.444462</ele>
        <time>2026-06-28T07:47:49.000Z</time>
      </trkpt>
      <trkpt lat="54.617883" lon="-2.808088">
        <ele>177.476248</ele>
        <time>2026-06-28T07:47:59.000Z</time>
      </trkpt>
      <trkpt lat="54.618097" lon="-2.807463">
        <ele>177.410785</ele>
        <time>2026-06-28T07:48:04.000Z</time>
      </trkpt>
      <trkpt lat="54.618471" lon="-2.806404">
        <ele>177.356911</ele>
        <time>2026-06-28T07:48:12.000Z</time>
      </trkpt>
      <trkpt lat="54.618641" lon="-2.805767">
        <ele>177.685105</ele>
        <time>2026-06-28T07:48:17.000Z</time>
      </trkpt>
      <trkpt lat="54.618704" lon="-2.805417">
        <ele>177.856189</ele>
        <time>2026-06-28T07:48:19.000Z</time>
      </trkpt>
      <trkpt lat="54.618958" lon="-2.804446">
        <ele>178.357197</ele>
        <time>2026-06-28T07:48:26.000Z</time>
      </trkpt>
      <trkpt lat="54.619398" lon="-2.802295">
        <ele>178.15617</ele>
        <time>2026-06-28T07:48:41.000Z</time>
      </trkpt>
      <trkpt lat="54.619488" lon="-2.80187">
        <ele>177.954446</ele>
        <time>2026-06-28T07:48:44.000Z</time>
      </trkpt>
      <trkpt lat="54.619651" lon="-2.801669">
        <ele>177.808862</ele>
        <time>2026-06-28T07:48:46.000Z</time>
      </trkpt>
      <trkpt lat="54.62119" lon="-2.799894">
        <ele>172.968753</ele>
        <time>2026-06-28T07:49:07.000Z</time>
      </trkpt>
      <trkpt lat="54.621912" lon="-2.798816">
        <ele>170.086776</ele>
        <time>2026-06-28T07:49:18.000Z</time>
      </trkpt>
      <trkpt lat="54.622711" lon="-2.797969">
        <ele>167.520327</ele>
        <time>2026-06-28T07:49:28.000Z</time>
      </trkpt>
      <trkpt lat="54.623421" lon="-2.797213">
        <ele>165.507769</ele>
        <time>2026-06-28T07:49:37.000Z</time>
      </trkpt>
      <trkpt lat="54.624152" lon="-2.796411">
        <ele>163.612583</ele>
        <time>2026-06-28T07:49:47.000Z</time>
      </trkpt>
      <trkpt lat="54.625391" lon="-2.795352">
        <ele>160.471471</ele>
        <time>2026-06-28T07:50:02.000Z</time>
      </trkpt>
      <trkpt lat="54.626064" lon="-2.794652">
        <ele>158.652803</ele>
        <time>2026-06-28T07:50:11.000Z</time>
      </trkpt>
      <trkpt lat="54.62631" lon="-2.794468">
        <ele>158.343422</ele>
        <time>2026-06-28T07:50:14.000Z</time>
      </trkpt>
      <trkpt lat="54.626822" lon="-2.794318">
        <ele>158.110991</ele>
        <time>2026-06-28T07:50:20.000Z</time>
      </trkpt>
      <trkpt lat="54.627187" lon="-2.794007">
        <ele>157.925013</ele>
        <time>2026-06-28T07:50:25.000Z</time>
      </trkpt>
      <trkpt lat="54.627345" lon="-2.793815">
        <ele>157.843809</ele>
        <time>2026-06-28T07:50:27.000Z</time>
      </trkpt>
      <trkpt lat="54.627496" lon="-2.79346">
        <ele>157.730372</ele>
        <time>2026-06-28T07:50:30.000Z</time>
      </trkpt>
      <trkpt lat="54.627615" lon="-2.793117">
        <ele>157.625089</ele>
        <time>2026-06-28T07:50:33.000Z</time>
      </trkpt>
      <trkpt lat="54.627737" lon="-2.792709">
        <ele>157.945365</ele>
        <time>2026-06-28T07:50:36.000Z</time>
      </trkpt>
      <trkpt lat="54.627851" lon="-2.791611">
        <ele>158.86902</ele>
        <time>2026-06-28T07:50:43.000Z</time>
      </trkpt>
      <trkpt lat="54.627925" lon="-2.791201">
        <ele>159.226807</ele>
        <time>2026-06-28T07:50:46.000Z</time>
      </trkpt>
      <trkpt lat="54.628065" lon="-2.79075">
        <ele>159.649221</ele>
        <time>2026-06-28T07:50:49.000Z</time>
      </trkpt>
      <trkpt lat="54.628085" lon="-2.790717">
        <ele>159.683488</ele>
        <time>2026-06-28T07:50:49.000Z</time>
      </trkpt>
      <trkpt lat="54.628627" lon="-2.789576">
        <ele>160.355423</ele>
        <time>2026-06-28T07:50:59.000Z</time>
      </trkpt>
      <trkpt lat="54.629201" lon="-2.78815">
        <ele>160.720107</ele>
        <time>2026-06-28T07:51:10.000Z</time>
      </trkpt>
      <trkpt lat="54.62933" lon="-2.787746">
        <ele>160.817818</ele>
        <time>2026-06-28T07:51:13.000Z</time>
      </trkpt>
      <trkpt lat="54.629371" lon="-2.787549">
        <ele>161.030199</ele>
        <time>2026-06-28T07:51:14.000Z</time>
      </trkpt>
      <trkpt lat="54.629405" lon="-2.787263">
        <ele>161.34494</ele>
        <time>2026-06-28T07:51:16.000Z</time>
      </trkpt>
      <trkpt lat="54.629399" lon="-2.786478">
        <ele>162.221575</ele>
        <time>2026-06-28T07:51:21.000Z</time>
      </trkpt>
      <trkpt lat="54.629229" lon="-2.784618">
        <ele>164.327477</ele>
        <time>2026-06-28T07:51:33.000Z</time>
      </trkpt>
      <trkpt lat="54.629206" lon="-2.784208">
        <ele>165.298028</ele>
        <time>2026-06-28T07:51:36.000Z</time>
      </trkpt>
      <trkpt lat="54.629256" lon="-2.783037">
        <ele>168.030905</ele>
        <time>2026-06-28T07:51:44.000Z</time>
      </trkpt>
      <trkpt lat="54.629349" lon="-2.782073">
        <ele>170.328494</ele>
        <time>2026-06-28T07:51:50.000Z</time>
      </trkpt>
      <trkpt lat="54.629379" lon="-2.781845">
        <ele>170.874706</ele>
        <time>2026-06-28T07:51:52.000Z</time>
      </trkpt>
      <trkpt lat="54.629605" lon="-2.781134">
        <ele>171.435724</ele>
        <time>2026-06-28T07:51:57.000Z</time>
      </trkpt>
      <trkpt lat="54.629784" lon="-2.780803">
        <ele>171.367984</ele>
        <time>2026-06-28T07:52:00.000Z</time>
      </trkpt>
      <trkpt lat="54.630401" lon="-2.779499">
        <ele>171.118964</ele>
        <time>2026-06-28T07:52:11.000Z</time>
      </trkpt>
      <trkpt lat="54.630585" lon="-2.779089">
        <ele>170.946144</ele>
        <time>2026-06-28T07:52:14.000Z</time>
      </trkpt>
      <trkpt lat="54.63117" lon="-2.777774">
        <ele>168.641411</ele>
        <time>2026-06-28T07:52:25.000Z</time>
      </trkpt>
      <trkpt lat="54.631427" lon="-2.777127">
        <ele>167.562905</ele>
        <time>2026-06-28T07:52:30.000Z</time>
      </trkpt>
      <trkpt lat="54.631491" lon="-2.776904">
        <ele>167.197457</ele>
        <time>2026-06-28T07:52:32.000Z</time>
      </trkpt>
      <trkpt lat="54.631545" lon="-2.776565">
        <ele>166.732095</ele>
        <time>2026-06-28T07:52:34.000Z</time>
      </trkpt>
      <trkpt lat="54.631693" lon="-2.77602">
        <ele>166.179581</ele>
        <time>2026-06-28T07:52:38.000Z</time>
      </trkpt>
      <trkpt lat="54.631914" lon="-2.775517">
        <ele>165.590852</ele>
        <time>2026-06-28T07:52:42.000Z</time>
      </trkpt>
      <trkpt lat="54.632137" lon="-2.775158">
        <ele>165.110074</ele>
        <time>2026-06-28T07:52:45.000Z</time>
      </trkpt>
      <trkpt lat="54.632341" lon="-2.774701">
        <ele>164.573229</ele>
        <time>2026-06-28T07:52:49.000Z</time>
      </trkpt>
      <trkpt lat="54.632502" lon="-2.774101">
        <ele>163.963503</ele>
        <time>2026-06-28T07:52:53.000Z</time>
      </trkpt>
      <trkpt lat="54.632648" lon="-2.773317">
        <ele>164.685338</ele>
        <time>2026-06-28T07:52:58.000Z</time>
      </trkpt>
      <trkpt lat="54.632669" lon="-2.773157">
        <ele>164.854386</ele>
        <time>2026-06-28T07:52:59.000Z</time>
      </trkpt>
      <trkpt lat="54.63269" lon="-2.773016">
        <ele>165.004493</ele>
        <time>2026-06-28T07:53:00.000Z</time>
      </trkpt>
      <trkpt lat="54.632706" lon="-2.772814">
        <ele>165.232786</ele>
        <time>2026-06-28T07:53:01.000Z</time>
      </trkpt>
      <trkpt lat="54.632698" lon="-2.772721">
        <ele>165.33973</ele>
        <time>2026-06-28T07:53:02.000Z</time>
      </trkpt>
      <trkpt lat="54.632723" lon="-2.772421">
        <ele>165.651902</ele>
        <time>2026-06-28T07:53:04.000Z</time>
      </trkpt>
      <trkpt lat="54.632725" lon="-2.772276">
        <ele>165.812916</ele>
        <time>2026-06-28T07:53:05.000Z</time>
      </trkpt>
      <trkpt lat="54.632697" lon="-2.771626">
        <ele>166.512595</ele>
        <time>2026-06-28T07:53:09.000Z</time>
      </trkpt>
      <trkpt lat="54.632763" lon="-2.770752">
        <ele>167.145526</ele>
        <time>2026-06-28T07:53:15.000Z</time>
      </trkpt>
      <trkpt lat="54.632865" lon="-2.770377">
        <ele>166.958315</ele>
        <time>2026-06-28T07:53:18.000Z</time>
      </trkpt>
      <trkpt lat="54.632989" lon="-2.77001">
        <ele>166.786176</ele>
        <time>2026-06-28T07:53:21.000Z</time>
      </trkpt>
      <trkpt lat="54.633078" lon="-2.769849">
        <ele>166.682674</ele>
        <time>2026-06-28T07:53:22.000Z</time>
      </trkpt>
      <trkpt lat="54.633237" lon="-2.769585">
        <ele>166.518816</ele>
        <time>2026-06-28T07:53:24.000Z</time>
      </trkpt>
      <trkpt lat="54.633782" lon="-2.769263">
        <ele>166.081677</ele>
        <time>2026-06-28T07:53:30.000Z</time>
      </trkpt>
      <trkpt lat="54.634076" lon="-2.769023">
        <ele>165.777488</ele>
        <time>2026-06-28T07:53:34.000Z</time>
      </trkpt>
      <trkpt lat="54.634347" lon="-2.768741">
        <ele>165.158877</ele>
        <time>2026-06-28T07:53:38.000Z</time>
      </trkpt>
      <trkpt lat="54.634437" lon="-2.768618">
        <ele>164.966055</ele>
        <time>2026-06-28T07:53:39.000Z</time>
      </trkpt>
      <trkpt lat="54.634734" lon="-2.768089">
        <ele>164.156124</ele>
        <time>2026-06-28T07:53:44.000Z</time>
      </trkpt>
      <trkpt lat="54.635307" lon="-2.767051">
        <ele>162.565325</ele>
        <time>2026-06-28T07:53:53.000Z</time>
      </trkpt>
      <trkpt lat="54.636498" lon="-2.764809">
        <ele>163.085183</ele>
        <time>2026-06-28T07:54:13.000Z</time>
      </trkpt>
      <trkpt lat="54.635462" lon="-2.762597">
        <ele>167.815271</ele>
        <time>2026-06-28T07:54:31.000Z</time>
      </trkpt>
      <trkpt lat="54.63388" lon="-2.759328">
        <ele>175.208818</ele>
        <time>2026-06-28T07:54:58.000Z</time>
      </trkpt>
      <trkpt lat="54.632513" lon="-2.759327">
        <ele>178.310183</ele>
        <time>2026-06-28T07:55:13.000Z</time>
      </trkpt>
      <trkpt lat="54.631657" lon="-2.759536">
        <ele>181.133279</ele>
        <time>2026-06-28T07:55:23.000Z</time>
      </trkpt>
      <trkpt lat="54.630957" lon="-2.759276">
        <ele>183.468581</ele>
        <time>2026-06-28T07:55:31.000Z</time>
      </trkpt>
      <trkpt lat="54.629969" lon="-2.758781">
        <ele>187.068682</ele>
        <time>2026-06-28T07:55:42.000Z</time>
      </trkpt>
      <trkpt lat="54.628219" lon="-2.758005">
        <ele>192.951157</ele>
        <time>2026-06-28T07:56:02.000Z</time>
      </trkpt>
      <trkpt lat="54.626699" lon="-2.757098">
        <ele>196.759828</ele>
        <time>2026-06-28T07:56:20.000Z</time>
      </trkpt>
      <trkpt lat="54.625756" lon="-2.756715">
        <ele>198.312434</ele>
        <time>2026-06-28T07:56:31.000Z</time>
      </trkpt>
      <trkpt lat="54.624799" lon="-2.756397">
        <ele>199.365292</ele>
        <time>2026-06-28T07:56:42.000Z</time>
      </trkpt>
      <trkpt lat="54.624431" lon="-2.756329">
        <ele>199.716312</ele>
        <time>2026-06-28T07:56:46.000Z</time>
      </trkpt>
      <trkpt lat="54.62311" lon="-2.756401">
        <ele>202.380893</ele>
        <time>2026-06-28T07:57:01.000Z</time>
      </trkpt>
      <trkpt lat="54.622397" lon="-2.756422">
        <ele>204.538406</ele>
        <time>2026-06-28T07:57:09.000Z</time>
      </trkpt>
      <trkpt lat="54.621369" lon="-2.756445">
        <ele>207.892427</ele>
        <time>2026-06-28T07:57:20.000Z</time>
      </trkpt>
      <trkpt lat="54.620997" lon="-2.756426">
        <ele>209.20355</ele>
        <time>2026-06-28T07:57:24.000Z</time>
      </trkpt>
      <trkpt lat="54.619452" lon="-2.756387">
        <ele>211.953374</ele>
        <time>2026-06-28T07:57:41.000Z</time>
      </trkpt>
      <trkpt lat="54.618924" lon="-2.756203">
        <ele>211.878698</ele>
        <time>2026-06-28T07:57:47.000Z</time>
      </trkpt>
      <trkpt lat="54.617874" lon="-2.755686">
        <ele>210.172211</ele>
        <time>2026-06-28T07:57:59.000Z</time>
      </trkpt>
      <trkpt lat="54.617358" lon="-2.755638">
        <ele>208.581012</ele>
        <time>2026-06-28T07:58:05.000Z</time>
      </trkpt>
      <trkpt lat="54.616845" lon="-2.755764">
        <ele>207.038262</ele>
        <time>2026-06-28T07:58:11.000Z</time>
      </trkpt>
      <trkpt lat="54.616266" lon="-2.755257">
        <ele>205.252068</ele>
        <time>2026-06-28T07:58:18.000Z</time>
      </trkpt>
      <trkpt lat="54.615636" lon="-2.755324">
        <ele>203.595357</ele>
        <time>2026-06-28T07:58:25.000Z</time>
      </trkpt>
      <trkpt lat="54.615108" lon="-2.755425">
        <ele>202.216211</ele>
        <time>2026-06-28T07:58:31.000Z</time>
      </trkpt>
      <trkpt lat="54.614443" lon="-2.755373">
        <ele>201.055746</ele>
        <time>2026-06-28T07:58:38.000Z</time>
      </trkpt>
      <trkpt lat="54.613406" lon="-2.755937">
        <ele>199.568271</ele>
        <time>2026-06-28T07:58:50.000Z</time>
      </trkpt>
      <trkpt lat="54.612645" lon="-2.756116">
        <ele>200.140044</ele>
        <time>2026-06-28T07:58:59.000Z</time>
      </trkpt>
      <trkpt lat="54.611508" lon="-2.756266">
        <ele>202.099774</ele>
        <time>2026-06-28T07:59:12.000Z</time>
      </trkpt>
      <trkpt lat="54.610305" lon="-2.756719">
        <ele>204.628502</ele>
        <time>2026-06-28T07:59:26.000Z</time>
      </trkpt>
      <trkpt lat="54.609519" lon="-2.756771">
        <ele>206.064149</ele>
        <time>2026-06-28T07:59:35.000Z</time>
      </trkpt>
      <trkpt lat="54.608398" lon="-2.757327">
        <ele>205.971518</ele>
        <time>2026-06-28T07:59:48.000Z</time>
      </trkpt>
      <trkpt lat="54.608086" lon="-2.757389">
        <ele>205.947116</ele>
        <time>2026-06-28T07:59:51.000Z</time>
      </trkpt>
      <trkpt lat="54.607914" lon="-2.757324">
        <ele>205.933373</ele>
        <time>2026-06-28T07:59:53.000Z</time>
      </trkpt>
      <trkpt lat="54.607363" lon="-2.756919">
        <ele>205.175253</ele>
        <time>2026-06-28T08:00:00.000Z</time>
      </trkpt>
      <trkpt lat="54.607073" lon="-2.75666">
        <ele>204.712528</ele>
        <time>2026-06-28T08:00:04.000Z</time>
      </trkpt>
      <trkpt lat="54.606788" lon="-2.756234">
        <ele>204.178575</ele>
        <time>2026-06-28T08:00:08.000Z</time>
      </trkpt>
      <trkpt lat="54.60662" lon="-2.756038">
        <ele>203.908442</ele>
        <time>2026-06-28T08:00:10.000Z</time>
      </trkpt>
      <trkpt lat="54.606392" lon="-2.755917">
        <ele>203.580764</ele>
        <time>2026-06-28T08:00:13.000Z</time>
      </trkpt>
      <trkpt lat="54.605915" lon="-2.755789">
        <ele>202.17451</ele>
        <time>2026-06-28T08:00:18.000Z</time>
      </trkpt>
      <trkpt lat="54.605854" lon="-2.755688">
        <ele>201.912296</ele>
        <time>2026-06-28T08:00:19.000Z</time>
      </trkpt>
      <trkpt lat="54.605698" lon="-2.755348">
        <ele>201.103864</ele>
        <time>2026-06-28T08:00:22.000Z</time>
      </trkpt>
      <trkpt lat="54.605846" lon="-2.754359">
        <ele>199.170407</ele>
        <time>2026-06-28T08:00:29.000Z</time>
      </trkpt>
      <trkpt lat="54.605957" lon="-2.753956">
        <ele>198.331103</ele>
        <time>2026-06-28T08:00:32.000Z</time>
      </trkpt>
      <trkpt lat="54.606061" lon="-2.753614">
        <ele>197.567775</ele>
        <time>2026-06-28T08:00:34.000Z</time>
      </trkpt>
      <trkpt lat="54.606167" lon="-2.753419">
        <ele>196.799665</ele>
        <time>2026-06-28T08:00:36.000Z</time>
      </trkpt>
      <trkpt lat="54.606231" lon="-2.753291">
        <ele>196.292697</ele>
        <time>2026-06-28T08:00:37.000Z</time>
      </trkpt>
      <trkpt lat="54.606582" lon="-2.752768">
        <ele>193.803453</ele>
        <time>2026-06-28T08:00:42.000Z</time>
      </trkpt>
      <trkpt lat="54.606825" lon="-2.752196">
        <ele>191.675396</ele>
        <time>2026-06-28T08:00:47.000Z</time>
      </trkpt>
      <trkpt lat="54.607045" lon="-2.751481">
        <ele>189.191882</ele>
        <time>2026-06-28T08:00:52.000Z</time>
      </trkpt>
      <trkpt lat="54.60706" lon="-2.751371">
        <ele>188.82436</ele>
        <time>2026-06-28T08:00:53.000Z</time>
      </trkpt>
      <trkpt lat="54.607134" lon="-2.751101">
        <ele>187.8994</ele>
        <time>2026-06-28T08:00:55.000Z</time>
      </trkpt>
      <trkpt lat="54.607161" lon="-2.750999">
        <ele>187.576229</ele>
        <time>2026-06-28T08:00:56.000Z</time>
      </trkpt>
      <trkpt lat="54.60727" lon="-2.750558">
        <ele>186.113233</ele>
        <time>2026-06-28T08:00:59.000Z</time>
      </trkpt>
      <trkpt lat="54.607557" lon="-2.749327">
        <ele>181.97037</ele>
        <time>2026-06-28T08:01:08.000Z</time>
      </trkpt>
      <trkpt lat="54.607668" lon="-2.748881">
        <ele>180.480426</ele>
        <time>2026-06-28T08:01:11.000Z</time>
      </trkpt>
      <trkpt lat="54.607809" lon="-2.747991">
        <ele>177.969433</ele>
        <time>2026-06-28T08:01:17.000Z</time>
      </trkpt>
      <trkpt lat="54.607839" lon="-2.747856">
        <ele>177.711</ele>
        <time>2026-06-28T08:01:18.000Z</time>
      </trkpt>
      <trkpt lat="54.607966" lon="-2.747367">
        <ele>176.776773</ele>
        <time>2026-06-28T08:01:21.000Z</time>
      </trkpt>
      <trkpt lat="54.607998" lon="-2.747216">
        <ele>176.513538</ele>
        <time>2026-06-28T08:01:22.000Z</time>
      </trkpt>
      <trkpt lat="54.60809" lon="-2.74688">
        <ele>175.891309</ele>
        <time>2026-06-28T08:01:24.000Z</time>
      </trkpt>
      <trkpt lat="54.608116" lon="-2.746812">
        <ele>175.736737</ele>
        <time>2026-06-28T08:01:25.000Z</time>
      </trkpt>
      <trkpt lat="54.608194" lon="-2.746817">
        <ele>175.491206</ele>
        <time>2026-06-28T08:01:26.000Z</time>
      </trkpt>
      <trkpt lat="54.60848" lon="-2.747112">
        <ele>174.527811</ele>
        <time>2026-06-28T08:01:30.000Z</time>
      </trkpt>
      <trkpt lat="54.609166" lon="-2.747885">
        <ele>173.622613</ele>
        <time>2026-06-28T08:01:39.000Z</time>
      </trkpt>
      <trkpt lat="54.609604" lon="-2.748181">
        <ele>174.470063</ele>
        <time>2026-06-28T08:01:44.000Z</time>
      </trkpt>
      <trkpt lat="54.609757" lon="-2.748204">
        <ele>174.756871</ele>
        <time>2026-06-28T08:01:46.000Z</time>
      </trkpt>
      <trkpt lat="54.609868" lon="-2.748173">
        <ele>174.964393</ele>
        <time>2026-06-28T08:01:47.000Z</time>
      </trkpt>
      <trkpt lat="54.610109" lon="-2.748066">
        <ele>175.412727</ele>
        <time>2026-06-28T08:01:50.000Z</time>
      </trkpt>
      <trkpt lat="54.611695" lon="-2.746609">
        <ele>182.573103</ele>
        <time>2026-06-28T08:02:10.000Z</time>
      </trkpt>
      <trkpt lat="54.611842" lon="-2.746354">
        <ele>183.544309</ele>
        <time>2026-06-28T08:02:12.000Z</time>
      </trkpt>
      <trkpt lat="54.611899" lon="-2.746079">
        <ele>184.326575</ele>
        <time>2026-06-28T08:02:14.000Z</time>
      </trkpt>
      <trkpt lat="54.611958" lon="-2.744396">
        <ele>187.553014</ele>
        <time>2026-06-28T08:02:25.000Z</time>
      </trkpt>
      <trkpt lat="54.611994" lon="-2.743635">
        <ele>188.925361</ele>
        <time>2026-06-28T08:02:30.000Z</time>
      </trkpt>
      <trkpt lat="54.611897" lon="-2.740796">
        <ele>194.948564</ele>
        <time>2026-06-28T08:02:48.000Z</time>
      </trkpt>
      <trkpt lat="54.611867" lon="-2.740255">
        <ele>196.163314</ele>
        <time>2026-06-28T08:02:52.000Z</time>
      </trkpt>
      <trkpt lat="54.611684" lon="-2.73935">
        <ele>199.03409</ele>
        <time>2026-06-28T08:02:58.000Z</time>
      </trkpt>
      <trkpt lat="54.611553" lon="-2.738906">
        <ele>201.051253</ele>
        <time>2026-06-28T08:03:01.000Z</time>
      </trkpt>
      <trkpt lat="54.611099" lon="-2.737617">
        <ele>207.166293</ele>
        <time>2026-06-28T08:03:11.000Z</time>
      </trkpt>
      <trkpt lat="54.611054" lon="-2.737402">
        <ele>208.136865</ele>
        <time>2026-06-28T08:03:12.000Z</time>
      </trkpt>
      <trkpt lat="54.611038" lon="-2.737152">
        <ele>209.181575</ele>
        <time>2026-06-28T08:03:14.000Z</time>
      </trkpt>
      <trkpt lat="54.6113" lon="-2.736439">
        <ele>212.046461</ele>
        <time>2026-06-28T08:03:19.000Z</time>
      </trkpt>
      <trkpt lat="54.611617" lon="-2.735545">
        <ele>215.491271</ele>
        <time>2026-06-28T08:03:26.000Z</time>
      </trkpt>
      <trkpt lat="54.611653" lon="-2.73547">
        <ele>215.747304</ele>
        <time>2026-06-28T08:03:27.000Z</time>
      </trkpt>
      <trkpt lat="54.611814" lon="-2.734759">
        <ele>218.255253</ele>
        <time>2026-06-28T08:03:32.000Z</time>
      </trkpt>
      <trkpt lat="54.611894" lon="-2.734215">
        <ele>220.090067</ele>
        <time>2026-06-28T08:03:36.000Z</time>
      </trkpt>
      <trkpt lat="54.611954" lon="-2.733653">
        <ele>221.017602</ele>
        <time>2026-06-28T08:03:40.000Z</time>
      </trkpt>
      <trkpt lat="54.611988" lon="-2.733021">
        <ele>222.018737</ele>
        <time>2026-06-28T08:03:44.000Z</time>
      </trkpt>
      <trkpt lat="54.611981" lon="-2.732524">
        <ele>222.804666</ele>
        <time>2026-06-28T08:03:47.000Z</time>
      </trkpt>
      <trkpt lat="54.611938" lon="-2.732108">
        <ele>223.478159</ele>
        <time>2026-06-28T08:03:50.000Z</time>
      </trkpt>
      <trkpt lat="54.611454" lon="-2.727918">
        <ele>226.591239</ele>
        <time>2026-06-28T08:04:18.000Z</time>
      </trkpt>
      <trkpt lat="54.611351" lon="-2.726965">
        <ele>225.161127</ele>
        <time>2026-06-28T08:04:24.000Z</time>
      </trkpt>
      <trkpt lat="54.611449" lon="-2.726122">
        <ele>223.866853</ele>
        <time>2026-06-28T08:04:30.000Z</time>
      </trkpt>
      <trkpt lat="54.611572" lon="-2.724524">
        <ele>221.206501</ele>
        <time>2026-06-28T08:04:40.000Z</time>
      </trkpt>
      <trkpt lat="54.611611" lon="-2.722827">
        <ele>217.843944</ele>
        <time>2026-06-28T08:04:51.000Z</time>
      </trkpt>
      <trkpt lat="54.611706" lon="-2.717203">
        <ele>203.409291</ele>
        <time>2026-06-28T08:05:27.000Z</time>
      </trkpt>
      <trkpt lat="54.611696" lon="-2.716955">
        <ele>202.661687</ele>
        <time>2026-06-28T08:05:29.000Z</time>
      </trkpt>
      <trkpt lat="54.61234" lon="-2.716761">
        <ele>199.307395</ele>
        <time>2026-06-28T08:05:36.000Z</time>
      </trkpt>
      <trkpt lat="54.613029" lon="-2.716355">
        <ele>195.992101</ele>
        <time>2026-06-28T08:05:44.000Z</time>
      </trkpt>
      <trkpt lat="54.613572" lon="-2.715958">
        <ele>193.405602</ele>
        <time>2026-06-28T08:05:51.000Z</time>
      </trkpt>
      <trkpt lat="54.614069" lon="-2.715637">
        <ele>191.040277</ele>
        <time>2026-06-28T08:05:57.000Z</time>
      </trkpt>
      <trkpt lat="54.614371" lon="-2.715486">
        <ele>190.286504</ele>
        <time>2026-06-28T08:06:00.000Z</time>
      </trkpt>
      <trkpt lat="54.614681" lon="-2.715419">
        <ele>189.583573</ele>
        <time>2026-06-28T08:06:03.000Z</time>
      </trkpt>
      <trkpt lat="54.615351" lon="-2.715418">
        <ele>188.095448</ele>
        <time>2026-06-28T08:06:10.000Z</time>
      </trkpt>
      <trkpt lat="54.616799" lon="-2.71585">
        <ele>185.466102</ele>
        <time>2026-06-28T08:06:26.000Z</time>
      </trkpt>
      <trkpt lat="54.617178" lon="-2.71592">
        <ele>184.843283</ele>
        <time>2026-06-28T08:06:30.000Z</time>
      </trkpt>
      <trkpt lat="54.617592" lon="-2.715938">
        <ele>184.181409</ele>
        <time>2026-06-28T08:06:35.000Z</time>
      </trkpt>
      <trkpt lat="54.618506" lon="-2.715793">
        <ele>181.604688</ele>
        <time>2026-06-28T08:06:45.000Z</time>
      </trkpt>
      <trkpt lat="54.619637" lon="-2.715567">
        <ele>178.637522</ele>
        <time>2026-06-28T08:06:58.000Z</time>
      </trkpt>
      <trkpt lat="54.620134" lon="-2.71547">
        <ele>178.134615</ele>
        <time>2026-06-28T08:07:04.000Z</time>
      </trkpt>
      <trkpt lat="54.621353" lon="-2.715576">
        <ele>177.116416</ele>
        <time>2026-06-28T08:07:18.000Z</time>
      </trkpt>
      <trkpt lat="54.622612" lon="-2.715905">
        <ele>178.107725</ele>
        <time>2026-06-28T08:07:32.000Z</time>
      </trkpt>
      <trkpt lat="54.624104" lon="-2.716477">
        <ele>176.271844</ele>
        <time>2026-06-28T08:07:49.000Z</time>
      </trkpt>
      <trkpt lat="54.626196" lon="-2.717602">
        <ele>168.028362</ele>
        <time>2026-06-28T08:08:13.000Z</time>
      </trkpt>
      <trkpt lat="54.627187" lon="-2.718144">
        <ele>163.366072</ele>
        <time>2026-06-28T08:08:25.000Z</time>
      </trkpt>
      <trkpt lat="54.628366" lon="-2.71881">
        <ele>158.510017</ele>
        <time>2026-06-28T08:08:39.000Z</time>
      </trkpt>
      <trkpt lat="54.628891" lon="-2.719159">
        <ele>157.502835</ele>
        <time>2026-06-28T08:08:45.000Z</time>
      </trkpt>
      <trkpt lat="54.629472" lon="-2.719625">
        <ele>156.393974</ele>
        <time>2026-06-28T08:08:52.000Z</time>
      </trkpt>
      <trkpt lat="54.629786" lon="-2.719951">
        <ele>155.751742</ele>
        <time>2026-06-28T08:08:56.000Z</time>
      </trkpt>
      <trkpt lat="54.630157" lon="-2.720361">
        <ele>156.448893</ele>
        <time>2026-06-28T08:09:01.000Z</time>
      </trkpt>
      <trkpt lat="54.630981" lon="-2.721185">
        <ele>158.138764</ele>
        <time>2026-06-28T08:09:12.000Z</time>
      </trkpt>
      <trkpt lat="54.631269" lon="-2.721478">
        <ele>158.745848</ele>
        <time>2026-06-28T08:09:16.000Z</time>
      </trkpt>
      <trkpt lat="54.631313" lon="-2.721525">
        <ele>158.827638</ele>
        <time>2026-06-28T08:09:17.000Z</time>
      </trkpt>
      <trkpt lat="54.631402" lon="-2.721604">
        <ele>159.057902</ele>
        <time>2026-06-28T08:09:18.000Z</time>
      </trkpt>
      <trkpt lat="54.631797" lon="-2.721985">
        <ele>160.103152</ele>
        <time>2026-06-28T08:09:23.000Z</time>
      </trkpt>
      <trkpt lat="54.631844" lon="-2.722028">
        <ele>160.239539</ele>
        <time>2026-06-28T08:09:24.000Z</time>
      </trkpt>
      <trkpt lat="54.632194" lon="-2.722467">
        <ele>161.252427</ele>
        <time>2026-06-28T08:09:29.000Z</time>
      </trkpt>
      <trkpt lat="54.632897" lon="-2.723627">
        <ele>162.95931</ele>
        <time>2026-06-28T08:09:40.000Z</time>
      </trkpt>
      <trkpt lat="54.632959" lon="-2.723746">
        <ele>162.841377</ele>
        <time>2026-06-28T08:09:41.000Z</time>
      </trkpt>
      <trkpt lat="54.633215" lon="-2.724115">
        <ele>162.390585</ele>
        <time>2026-06-28T08:09:45.000Z</time>
      </trkpt>
      <trkpt lat="54.633634" lon="-2.724614">
        <ele>161.694489</ele>
        <time>2026-06-28T08:09:51.000Z</time>
      </trkpt>
      <trkpt lat="54.634063" lon="-2.725072">
        <ele>161.005989</ele>
        <time>2026-06-28T08:09:57.000Z</time>
      </trkpt>
      <trkpt lat="54.634335" lon="-2.725326">
        <ele>160.379783</ele>
        <time>2026-06-28T08:10:00.000Z</time>
      </trkpt>
      <trkpt lat="54.634825" lon="-2.725845">
        <ele>158.45067</ele>
        <time>2026-06-28T08:10:06.000Z</time>
      </trkpt>
      <trkpt lat="54.63568" lon="-2.726393">
        <ele>155.425519</ele>
        <time>2026-06-28T08:10:16.000Z</time>
      </trkpt>
      <trkpt lat="54.635721" lon="-2.726422">
        <ele>155.267277</ele>
        <time>2026-06-28T08:10:16.000Z</time>
      </trkpt>
      <trkpt lat="54.635742" lon="-2.726441">
        <ele>155.182497</ele>
        <time>2026-06-28T08:10:16.000Z</time>
      </trkpt>
      <trkpt lat="54.635853" lon="-2.726545">
        <ele>154.79662</ele>
        <time>2026-06-28T08:10:17.000Z</time>
      </trkpt>
      <trkpt lat="54.636335" lon="-2.727052">
        <ele>152.325408</ele>
        <time>2026-06-28T08:10:23.000Z</time>
      </trkpt>
      <trkpt lat="54.63643" lon="-2.72709">
        <ele>151.904721</ele>
        <time>2026-06-28T08:10:24.000Z</time>
      </trkpt>
      <trkpt lat="54.636483" lon="-2.727089">
        <ele>151.705794</ele>
        <time>2026-06-28T08:10:25.000Z</time>
      </trkpt>
      <trkpt lat="54.636921" lon="-2.726848">
        <ele>149.746394</ele>
        <time>2026-06-28T08:10:30.000Z</time>
      </trkpt>
      <trkpt lat="54.637092" lon="-2.72684">
        <ele>148.940789</ele>
        <time>2026-06-28T08:10:32.000Z</time>
      </trkpt>
      <trkpt lat="54.637667" lon="-2.727164">
        <ele>146.169193</ele>
        <time>2026-06-28T08:10:39.000Z</time>
      </trkpt>
      <trkpt lat="54.638469" lon="-2.727668">
        <ele>141.751286</ele>
        <time>2026-06-28T08:10:48.000Z</time>
      </trkpt>
      <trkpt lat="54.638982" lon="-2.728208">
        <ele>138.626953</ele>
        <time>2026-06-28T08:10:55.000Z</time>
      </trkpt>
      <trkpt lat="54.640426" lon="-2.729479">
        <ele>133.079239</ele>
        <time>2026-06-28T08:11:13.000Z</time>
      </trkpt>
      <trkpt lat="54.641256" lon="-2.729966">
        <ele>130.721339</ele>
        <time>2026-06-28T08:11:23.000Z</time>
      </trkpt>
      <trkpt lat="54.641852" lon="-2.730518">
        <ele>129.195934</ele>
        <time>2026-06-28T08:11:31.000Z</time>
      </trkpt>
      <trkpt lat="54.642027" lon="-2.730702">
        <ele>128.726422</ele>
        <time>2026-06-28T08:11:33.000Z</time>
      </trkpt>
      <trkpt lat="54.642525" lon="-2.731425">
        <ele>127.101479</ele>
        <time>2026-06-28T08:11:40.000Z</time>
      </trkpt>
      <trkpt lat="54.64297" lon="-2.732155">
        <ele>125.263566</ele>
        <time>2026-06-28T08:11:47.000Z</time>
      </trkpt>
      <trkpt lat="54.643286" lon="-2.732755">
        <ele>123.896717</ele>
        <time>2026-06-28T08:11:52.000Z</time>
      </trkpt>
      <trkpt lat="54.643505" lon="-2.733149">
        <ele>122.990876</ele>
        <time>2026-06-28T08:11:56.000Z</time>
      </trkpt>
      <trkpt lat="54.644682" lon="-2.735015">
        <ele>120.344073</ele>
        <time>2026-06-28T08:12:14.000Z</time>
      </trkpt>
      <trkpt lat="54.645085" lon="-2.735569">
        <ele>119.838538</ele>
        <time>2026-06-28T08:12:20.000Z</time>
      </trkpt>
      <trkpt lat="54.645911" lon="-2.736237">
        <ele>120.188285</ele>
        <time>2026-06-28T08:12:30.000Z</time>
      </trkpt>
      <trkpt lat="54.646168" lon="-2.736605">
        <ele>120.320368</ele>
        <time>2026-06-28T08:12:34.000Z</time>
      </trkpt>
      <trkpt lat="54.646381" lon="-2.737111">
        <ele>120.460157</ele>
        <time>2026-06-28T08:12:38.000Z</time>
      </trkpt>
      <trkpt lat="54.646475" lon="-2.737525">
        <ele>120.584771</ele>
        <time>2026-06-28T08:12:41.000Z</time>
      </trkpt>
      <trkpt lat="54.646717" lon="-2.738766">
        <ele>120.972423</ele>
        <time>2026-06-28T08:12:49.000Z</time>
      </trkpt>
      <trkpt lat="54.646896" lon="-2.739103">
        <ele>121.111014</ele>
        <time>2026-06-28T08:12:52.000Z</time>
      </trkpt>
      <trkpt lat="54.647098" lon="-2.739272">
        <ele>121.226926</ele>
        <time>2026-06-28T08:12:54.000Z</time>
      </trkpt>
      <trkpt lat="54.647345" lon="-2.739337">
        <ele>121.349306</ele>
        <time>2026-06-28T08:12:57.000Z</time>
      </trkpt>
      <trkpt lat="54.647819" lon="-2.739357">
        <ele>121.522413</ele>
        <time>2026-06-28T08:13:02.000Z</time>
      </trkpt>
      <trkpt lat="54.648064" lon="-2.739397">
        <ele>121.599581</ele>
        <time>2026-06-28T08:13:05.000Z</time>
      </trkpt>
      <trkpt lat="54.648295" lon="-2.739515">
        <ele>121.676513</ele>
        <time>2026-06-28T08:13:08.000Z</time>
      </trkpt>
      <trkpt lat="54.648647" lon="-2.739756">
        <ele>121.79569</ele>
        <time>2026-06-28T08:13:12.000Z</time>
      </trkpt>
      <trkpt lat="54.648554" lon="-2.740317">
        <ele>121.904891</ele>
        <time>2026-06-28T08:13:16.000Z</time>
      </trkpt>
      <trkpt lat="54.648368" lon="-2.74155">
        <ele>123.359994</ele>
        <time>2026-06-28T08:13:24.000Z</time>
      </trkpt>
      <trkpt lat="54.648323" lon="-2.741828">
        <ele>123.777521</ele>
        <time>2026-06-28T08:13:26.000Z</time>
      </trkpt>
      <trkpt lat="54.648211" lon="-2.742403">
        <ele>124.709089</ele>
        <time>2026-06-28T08:13:30.000Z</time>
      </trkpt>
      <trkpt lat="54.648039" lon="-2.743081">
        <ele>125.809689</ele>
        <time>2026-06-28T08:13:35.000Z</time>
      </trkpt>
      <trkpt lat="54.647801" lon="-2.743691">
        <ele>126.918826</ele>
        <time>2026-06-28T08:13:40.000Z</time>
      </trkpt>
      <trkpt lat="54.647487" lon="-2.744293">
        <ele>128.106972</ele>
        <time>2026-06-28T08:13:45.000Z</time>
      </trkpt>
      <trkpt lat="54.647064" lon="-2.744883">
        <ele>129.514148</ele>
        <time>2026-06-28T08:13:51.000Z</time>
      </trkpt>
      <trkpt lat="54.64652" lon="-2.745495">
        <ele>131.187394</ele>
        <time>2026-06-28T08:13:58.000Z</time>
      </trkpt>
      <trkpt lat="54.646228" lon="-2.745795">
        <ele>131.477626</ele>
        <time>2026-06-28T08:14:02.000Z</time>
      </trkpt>
      <trkpt lat="54.645993" lon="-2.746143">
        <ele>131.70013</ele>
        <time>2026-06-28T08:14:05.000Z</time>
      </trkpt>
      <trkpt lat="54.645822" lon="-2.746473">
        <ele>131.88496</ele>
        <time>2026-06-28T08:14:08.000Z</time>
      </trkpt>
      <trkpt lat="54.645279" lon="-2.747923">
        <ele>132.635111</ele>
        <time>2026-06-28T08:14:19.000Z</time>
      </trkpt>
      <trkpt lat="54.645032" lon="-2.748371">
        <ele>133.031002</ele>
        <time>2026-06-28T08:14:23.000Z</time>
      </trkpt>
      <trkpt lat="54.644148" lon="-2.749398">
        <ele>134.231815</ele>
        <time>2026-06-28T08:14:35.000Z</time>
      </trkpt>
      <trkpt lat="54.643952" lon="-2.749731">
        <ele>134.546603</ele>
        <time>2026-06-28T08:14:38.000Z</time>
      </trkpt>
      <trkpt lat="54.643787" lon="-2.750109">
        <ele>135.036648</ele>
        <time>2026-06-28T08:14:41.000Z</time>
      </trkpt>
      <trkpt lat="54.64363" lon="-2.750971">
        <ele>136.025901</ele>
        <time>2026-06-28T08:14:47.000Z</time>
      </trkpt>
      <trkpt lat="54.643391" lon="-2.753025">
        <ele>138.339754</ele>
        <time>2026-06-28T08:15:00.000Z</time>
      </trkpt>
      <trkpt lat="54.643168" lon="-2.754405">
        <ele>140.0744</ele>
        <time>2026-06-28T08:15:09.000Z</time>
      </trkpt>
      <trkpt lat="54.643095" lon="-2.754866">
        <ele>140.658259</ele>
        <time>2026-06-28T08:15:12.000Z</time>
      </trkpt>
      <trkpt lat="54.643024" lon="-2.755332">
        <ele>141.239118</ele>
        <time>2026-06-28T08:15:15.000Z</time>
      </trkpt>
      <trkpt lat="54.64284" lon="-2.756312">
        <ele>142.935652</ele>
        <time>2026-06-28T08:15:22.000Z</time>
      </trkpt>
      <trkpt lat="54.642599" lon="-2.757325">
        <ele>145.075084</ele>
        <time>2026-06-28T08:15:29.000Z</time>
      </trkpt>
      <trkpt lat="54.6422" lon="-2.758512">
        <ele>147.711122</ele>
        <time>2026-06-28T08:15:38.000Z</time>
      </trkpt>
      <trkpt lat="54.641989" lon="-2.758978">
        <ele>148.387293</ele>
        <time>2026-06-28T08:15:42.000Z</time>
      </trkpt>
      <trkpt lat="54.641877" lon="-2.759186">
        <ele>148.715749</ele>
        <time>2026-06-28T08:15:44.000Z</time>
      </trkpt>
      <trkpt lat="54.641592" lon="-2.759473">
        <ele>149.362788</ele>
        <time>2026-06-28T08:15:48.000Z</time>
      </trkpt>
      <trkpt lat="54.641337" lon="-2.759605">
        <ele>149.885045</ele>
        <time>2026-06-28T08:15:51.000Z</time>
      </trkpt>
      <trkpt lat="54.640673" lon="-2.759776">
        <ele>151.194309</ele>
        <time>2026-06-28T08:15:58.000Z</time>
      </trkpt>
      <trkpt lat="54.640478" lon="-2.759897">
        <ele>151.7714</ele>
        <time>2026-06-28T08:16:00.000Z</time>
      </trkpt>
      <trkpt lat="54.638906" lon="-2.76123">
        <ele>156.994897</ele>
        <time>2026-06-28T08:16:19.000Z</time>
      </trkpt>
      <trkpt lat="54.638236" lon="-2.761685">
        <ele>158.398011</ele>
        <time>2026-06-28T08:16:27.000Z</time>
      </trkpt>
      <trkpt lat="54.638075" lon="-2.761894">
        <ele>158.806126</ele>
        <time>2026-06-28T08:16:29.000Z</time>
      </trkpt>
      <trkpt lat="54.63772" lon="-2.762471">
        <ele>159.762439</ele>
        <time>2026-06-28T08:16:34.000Z</time>
      </trkpt>
      <trkpt lat="54.6365" lon="-2.764801">
        <ele>160.991549</ele>
        <time>2026-06-28T08:16:54.000Z</time>
      </trkpt>
      <trkpt lat="54.635313" lon="-2.767048">
        <ele>162.476609</ele>
        <time>2026-06-28T08:17:14.000Z</time>
      </trkpt>
      <trkpt lat="54.634732" lon="-2.76809">
        <ele>163.946851</ele>
        <time>2026-06-28T08:17:23.000Z</time>
      </trkpt>
      <trkpt lat="54.634431" lon="-2.768621">
        <ele>164.864169</ele>
        <time>2026-06-28T08:17:28.000Z</time>
      </trkpt>
      <trkpt lat="54.634342" lon="-2.768725">
        <ele>165.082556</ele>
        <time>2026-06-28T08:17:29.000Z</time>
      </trkpt>
      <trkpt lat="54.634072" lon="-2.769035">
        <ele>165.783178</ele>
        <time>2026-06-28T08:17:33.000Z</time>
      </trkpt>
      <trkpt lat="54.633796" lon="-2.769272">
        <ele>166.459407</ele>
        <time>2026-06-28T08:17:36.000Z</time>
      </trkpt>
      <trkpt lat="54.633229" lon="-2.769582">
        <ele>166.611871</ele>
        <time>2026-06-28T08:17:43.000Z</time>
      </trkpt>
      <trkpt lat="54.633072" lon="-2.769852">
        <ele>166.623587</ele>
        <time>2026-06-28T08:17:45.000Z</time>
      </trkpt>
      <trkpt lat="54.632981" lon="-2.770016">
        <ele>166.630974</ele>
        <time>2026-06-28T08:17:46.000Z</time>
      </trkpt>
      <trkpt lat="54.632861" lon="-2.770375">
        <ele>166.643289</ele>
        <time>2026-06-28T08:17:49.000Z</time>
      </trkpt>
      <trkpt lat="54.632765" lon="-2.770761">
        <ele>166.656679</ele>
        <time>2026-06-28T08:17:52.000Z</time>
      </trkpt>
      <trkpt lat="54.632712" lon="-2.771624">
        <ele>166.560497</ele>
        <time>2026-06-28T08:17:58.000Z</time>
      </trkpt>
      <trkpt lat="54.632722" lon="-2.772272">
        <ele>165.969573</ele>
        <time>2026-06-28T08:18:02.000Z</time>
      </trkpt>
      <trkpt lat="54.63272" lon="-2.772431">
        <ele>165.833587</ele>
        <time>2026-06-28T08:18:03.000Z</time>
      </trkpt>
      <trkpt lat="54.632708" lon="-2.772716">
        <ele>165.569964</ele>
        <time>2026-06-28T08:18:05.000Z</time>
      </trkpt>
      <trkpt lat="54.632711" lon="-2.772819">
        <ele>165.479626</ele>
        <time>2026-06-28T08:18:06.000Z</time>
      </trkpt>
      <trkpt lat="54.632682" lon="-2.773024">
        <ele>165.286834</ele>
        <time>2026-06-28T08:18:07.000Z</time>
      </trkpt>
      <trkpt lat="54.632676" lon="-2.773163">
        <ele>165.160068</ele>
        <time>2026-06-28T08:18:08.000Z</time>
      </trkpt>
      <trkpt lat="54.632649" lon="-2.77332">
        <ele>165.017306</ele>
        <time>2026-06-28T08:18:09.000Z</time>
      </trkpt>
      <trkpt lat="54.632491" lon="-2.774095">
        <ele>164.259625</ele>
        <time>2026-06-28T08:18:14.000Z</time>
      </trkpt>
      <trkpt lat="54.632351" lon="-2.774716">
        <ele>164.099719</ele>
        <time>2026-06-28T08:18:18.000Z</time>
      </trkpt>
      <trkpt lat="54.632136" lon="-2.775162">
        <ele>164.801404</ele>
        <time>2026-06-28T08:18:22.000Z</time>
      </trkpt>
      <trkpt lat="54.631912" lon="-2.775529">
        <ele>165.429819</ele>
        <time>2026-06-28T08:18:25.000Z</time>
      </trkpt>
      <trkpt lat="54.631681" lon="-2.776007">
        <ele>166.199315</ele>
        <time>2026-06-28T08:18:29.000Z</time>
      </trkpt>
      <trkpt lat="54.631538" lon="-2.776562">
        <ele>166.9215</ele>
        <time>2026-06-28T08:18:33.000Z</time>
      </trkpt>
      <trkpt lat="54.631491" lon="-2.776892">
        <ele>167.338645</ele>
        <time>2026-06-28T08:18:35.000Z</time>
      </trkpt>
      <trkpt lat="54.631428" lon="-2.777138">
        <ele>167.661857</ele>
        <time>2026-06-28T08:18:37.000Z</time>
      </trkpt>
      <trkpt lat="54.631168" lon="-2.777776">
        <ele>168.671407</ele>
        <time>2026-06-28T08:18:42.000Z</time>
      </trkpt>
      <trkpt lat="54.630593" lon="-2.779094">
        <ele>170.828754</ele>
        <time>2026-06-28T08:18:53.000Z</time>
      </trkpt>
      <trkpt lat="54.63041" lon="-2.779502">
        <ele>171.500052</ele>
        <time>2026-06-28T08:18:56.000Z</time>
      </trkpt>
      <trkpt lat="54.629786" lon="-2.780794">
        <ele>171.087519</ele>
        <time>2026-06-28T08:19:07.000Z</time>
      </trkpt>
      <trkpt lat="54.629597" lon="-2.781142">
        <ele>170.931645</ele>
        <time>2026-06-28T08:19:10.000Z</time>
      </trkpt>
      <trkpt lat="54.629379" lon="-2.781837">
        <ele>170.659208</ele>
        <time>2026-06-28T08:19:15.000Z</time>
      </trkpt>
      <trkpt lat="54.629346" lon="-2.782064">
        <ele>170.579534</ele>
        <time>2026-06-28T08:19:17.000Z</time>
      </trkpt>
      <trkpt lat="54.629251" lon="-2.783045">
        <ele>168.306893</ele>
        <time>2026-06-28T08:19:23.000Z</time>
      </trkpt>
      <trkpt lat="54.629209" lon="-2.784205">
        <ele>165.528327</ele>
        <time>2026-06-28T08:19:30.000Z</time>
      </trkpt>
      <trkpt lat="54.629235" lon="-2.784613">
        <ele>164.541545</ele>
        <time>2026-06-28T08:19:33.000Z</time>
      </trkpt>
      <trkpt lat="54.629414" lon="-2.786471">
        <ele>162.163204</ele>
        <time>2026-06-28T08:19:45.000Z</time>
      </trkpt>
      <trkpt lat="54.6294" lon="-2.787271">
        <ele>161.536916</ele>
        <time>2026-06-28T08:19:50.000Z</time>
      </trkpt>
      <trkpt lat="54.629377" lon="-2.787548">
        <ele>161.312028</ele>
        <time>2026-06-28T08:19:52.000Z</time>
      </trkpt>
      <trkpt lat="54.629321" lon="-2.787753">
        <ele>161.137325</ele>
        <time>2026-06-28T08:19:53.000Z</time>
      </trkpt>
      <trkpt lat="54.629195" lon="-2.78816">
        <ele>160.769537</ele>
        <time>2026-06-28T08:19:56.000Z</time>
      </trkpt>
      <trkpt lat="54.628627" lon="-2.789585">
        <ele>160.244079</ele>
        <time>2026-06-28T08:20:07.000Z</time>
      </trkpt>
      <trkpt lat="54.628095" lon="-2.790713">
        <ele>159.788826</ele>
        <time>2026-06-28T08:20:16.000Z</time>
      </trkpt>
      <trkpt lat="54.628082" lon="-2.790748">
        <ele>159.755018</ele>
        <time>2026-06-28T08:20:16.000Z</time>
      </trkpt>
      <trkpt lat="54.62793" lon="-2.791205">
        <ele>159.338431</ele>
        <time>2026-06-28T08:20:19.000Z</time>
      </trkpt>
      <trkpt lat="54.627842" lon="-2.791602">
        <ele>158.985596</ele>
        <time>2026-06-28T08:20:22.000Z</time>
      </trkpt>
      <trkpt lat="54.62774" lon="-2.792719">
        <ele>158.074672</ele>
        <time>2026-06-28T08:20:29.000Z</time>
      </trkpt>
      <trkpt lat="54.627626" lon="-2.793115">
        <ele>157.705114</ele>
        <time>2026-06-28T08:20:32.000Z</time>
      </trkpt>
      <trkpt lat="54.627487" lon="-2.793454">
        <ele>157.374166</ele>
        <time>2026-06-28T08:20:35.000Z</time>
      </trkpt>
      <trkpt lat="54.627346" lon="-2.79382">
        <ele>157.513069</ele>
        <time>2026-06-28T08:20:38.000Z</time>
      </trkpt>
      <trkpt lat="54.627192" lon="-2.794009">
        <ele>157.693401</ele>
        <time>2026-06-28T08:20:40.000Z</time>
      </trkpt>
      <trkpt lat="54.626819" lon="-2.794334">
        <ele>158.106427</ele>
        <time>2026-06-28T08:20:45.000Z</time>
      </trkpt>
      <trkpt lat="54.62632" lon="-2.794484">
        <ele>158.622586</ele>
        <time>2026-06-28T08:20:51.000Z</time>
      </trkpt>
      <trkpt lat="54.626075" lon="-2.794652">
        <ele>158.884484</ele>
        <time>2026-06-28T08:20:54.000Z</time>
      </trkpt>
      <trkpt lat="54.625395" lon="-2.795342">
        <ele>160.426443</ele>
        <time>2026-06-28T08:21:03.000Z</time>
      </trkpt>
      <trkpt lat="54.624155" lon="-2.796408">
        <ele>163.626039</ele>
        <time>2026-06-28T08:21:18.000Z</time>
      </trkpt>
      <trkpt lat="54.623405" lon="-2.79721">
        <ele>165.550367</ele>
        <time>2026-06-28T08:21:28.000Z</time>
      </trkpt>
      <trkpt lat="54.622706" lon="-2.797957">
        <ele>167.415216</ele>
        <time>2026-06-28T08:21:37.000Z</time>
      </trkpt>
      <trkpt lat="54.621906" lon="-2.798818">
        <ele>170.12035</ele>
        <time>2026-06-28T08:21:47.000Z</time>
      </trkpt>
      <trkpt lat="54.621199" lon="-2.799878">
        <ele>172.923929</ele>
        <time>2026-06-28T08:21:57.000Z</time>
      </trkpt>
      <trkpt lat="54.61966" lon="-2.801666">
        <ele>178.248348</ele>
        <time>2026-06-28T08:22:18.000Z</time>
      </trkpt>
      <trkpt lat="54.619497" lon="-2.801868">
        <ele>178.266555</ele>
        <time>2026-06-28T08:22:20.000Z</time>
      </trkpt>
      <trkpt lat="54.619394" lon="-2.802305">
        <ele>178.291809</ele>
        <time>2026-06-28T08:22:23.000Z</time>
      </trkpt>
      <trkpt lat="54.618949" lon="-2.804431">
        <ele>178.280536</ele>
        <time>2026-06-28T08:22:38.000Z</time>
      </trkpt>
      <trkpt lat="54.618698" lon="-2.805411">
        <ele>177.899577</ele>
        <time>2026-06-28T08:22:45.000Z</time>
      </trkpt>
      <trkpt lat="54.618631" lon="-2.805763">
        <ele>177.769476</ele>
        <time>2026-06-28T08:22:47.000Z</time>
      </trkpt>
      <trkpt lat="54.618481" lon="-2.806398">
        <ele>177.519914</ele>
        <time>2026-06-28T08:22:51.000Z</time>
      </trkpt>
      <trkpt lat="54.618093" lon="-2.807471">
        <ele>177.350172</ele>
        <time>2026-06-28T08:22:59.000Z</time>
      </trkpt>
      <trkpt lat="54.617867" lon="-2.808083">
        <ele>177.421592</ele>
        <time>2026-06-28T08:23:04.000Z</time>
      </trkpt>
      <trkpt lat="54.617445" lon="-2.809377">
        <ele>177.568384</ele>
        <time>2026-06-28T08:23:14.000Z</time>
      </trkpt>
      <trkpt lat="54.617096" lon="-2.810085">
        <ele>177.055548</ele>
        <time>2026-06-28T08:23:20.000Z</time>
      </trkpt>
      <trkpt lat="54.61683" lon="-2.810459">
        <ele>176.548344</ele>
        <time>2026-06-28T08:23:24.000Z</time>
      </trkpt>
      <trkpt lat="54.616237" lon="-2.811042">
        <ele>175.562185</ele>
        <time>2026-06-28T08:23:32.000Z</time>
      </trkpt>
      <trkpt lat="54.616213" lon="-2.811087">
        <ele>175.503947</ele>
        <time>2026-06-28T08:23:32.000Z</time>
      </trkpt>
      <trkpt lat="54.615116" lon="-2.812446">
        <ele>170.772274</ele>
        <time>2026-06-28T08:23:47.000Z</time>
      </trkpt>
      <trkpt lat="54.614581" lon="-2.813076">
        <ele>168.004189</ele>
        <time>2026-06-28T08:23:54.000Z</time>
      </trkpt>
      <trkpt lat="54.614404" lon="-2.813218">
        <ele>167.188493</ele>
        <time>2026-06-28T08:23:56.000Z</time>
      </trkpt>
      <trkpt lat="54.614049" lon="-2.813467">
        <ele>165.736184</ele>
        <time>2026-06-28T08:24:00.000Z</time>
      </trkpt>
      <trkpt lat="54.613858" lon="-2.813687">
        <ele>164.921979</ele>
        <time>2026-06-28T08:24:03.000Z</time>
      </trkpt>
      <trkpt lat="54.613772" lon="-2.813627">
        <ele>164.585699</ele>
        <time>2026-06-28T08:24:04.000Z</time>
      </trkpt>
      <trkpt lat="54.61303" lon="-2.813714">
        <ele>161.766407</ele>
        <time>2026-06-28T08:24:12.000Z</time>
      </trkpt>
      <trkpt lat="54.61279" lon="-2.813793">
        <ele>160.890156</ele>
        <time>2026-06-28T08:24:15.000Z</time>
      </trkpt>
      <trkpt lat="54.612265" lon="-2.814392">
        <ele>159.798089</ele>
        <time>2026-06-28T08:24:22.000Z</time>
      </trkpt>
      <trkpt lat="54.612106" lon="-2.814488">
        <ele>159.55691</ele>
        <time>2026-06-28T08:24:24.000Z</time>
      </trkpt>
      <trkpt lat="54.611841" lon="-2.81459">
        <ele>159.163049</ele>
        <time>2026-06-28T08:24:27.000Z</time>
      </trkpt>
      <trkpt lat="54.611461" lon="-2.81497">
        <ele>158.56421</ele>
        <time>2026-06-28T08:24:32.000Z</time>
      </trkpt>
      <trkpt lat="54.611364" lon="-2.815063">
        <ele>158.390377</ele>
        <time>2026-06-28T08:24:33.000Z</time>
      </trkpt>
      <trkpt lat="54.610645" lon="-2.815499">
        <ele>157.799831</ele>
        <time>2026-06-28T08:24:41.000Z</time>
      </trkpt>
      <trkpt lat="54.610453" lon="-2.815654">
        <ele>157.70374</ele>
        <time>2026-06-28T08:24:43.000Z</time>
      </trkpt>
      <trkpt lat="54.609894" lon="-2.816344">
        <ele>157.395961</ele>
        <time>2026-06-28T08:24:51.000Z</time>
      </trkpt>
      <trkpt lat="54.609396" lon="-2.816874">
        <ele>157.159895</ele>
        <time>2026-06-28T08:24:58.000Z</time>
      </trkpt>
      <trkpt lat="54.608482" lon="-2.817459">
        <ele>156.881782</ele>
        <time>2026-06-28T08:25:09.000Z</time>
      </trkpt>
      <trkpt lat="54.608418" lon="-2.817522">
        <ele>156.859788</ele>
        <time>2026-06-28T08:25:10.000Z</time>
      </trkpt>
      <trkpt lat="54.608136" lon="-2.818281">
        <ele>156.711883</ele>
        <time>2026-06-28T08:25:16.000Z</time>
      </trkpt>
      <trkpt lat="54.607884" lon="-2.818567">
        <ele>156.71068</ele>
        <time>2026-06-28T08:25:19.000Z</time>
      </trkpt>
      <trkpt lat="54.606959" lon="-2.819643">
        <ele>156.761163</ele>
        <time>2026-06-28T08:25:31.000Z</time>
      </trkpt>
      <trkpt lat="54.606524" lon="-2.820314">
        <ele>156.785488986</ele>
        <time>2026-06-28T08:25:37.000Z</time>
      </trkpt>
      <trkpt lat="54.60601" lon="-2.820961">
        <ele>156.812016117</ele>
        <time>2026-06-28T08:25:44.000Z</time>
      </trkpt>
      <trkpt lat="54.605852" lon="-2.821227">
        <ele>156.821219148</ele>
        <time>2026-06-28T08:25:46.000Z</time>
      </trkpt>
      <trkpt lat="54.605532" lon="-2.822039">
        <ele>156.844941807</ele>
        <time>2026-06-28T08:25:52.000Z</time>
      </trkpt>
      <trkpt lat="54.605074" lon="-2.822794">
        <ele>156.871349731</ele>
        <time>2026-06-28T08:25:59.000Z</time>
      </trkpt>
      <trkpt lat="54.604925" lon="-2.82294">
        <ele>156.878494442</ele>
        <time>2026-06-28T08:26:01.000Z</time>
      </trkpt>
    </trkseg>
  </trk>
</gpx>

<!--
Performance optimized by W3 Total Cache. Learn more: https://www.boldgrid.com/w3-total-cache/?utm_source=w3tc&utm_medium=footer_comment&utm_campaign=free_plugin

Page Caching using Disk: Enhanced{w3tc_pagecache_reject_reason} 

Served from: www.aquabike.world @ 2026-05-10 17:31:12 by W3 Total Cache
-->